Time;durP1;ratioP1;P1;durP2;ratioP2;P2;SDS_P1;SDS_P2;PMS_P1;PMS_P2;Temp;Humidity;BMP_temperature;BMP_pressure;BME280_temperature;BME280_humidity;BME280_pressure;Samples;Min_cycle;Max_cycle;Signal;HPM_P1;HPM_P2
2022/05/21 00:00:38;;;;;;;3.55;2.75;;;19.20;99.90;;;;;;4959227;28;20031;-78
2022/05/21 00:03:05;;;;;;;6.15;2.58;;;19.20;99.90;;;;;;4973599;28;20031;-78
2022/05/21 00:05:33;;;;;;;4.10;2.20;;;19.10;99.90;;;;;;4975221;28;20122;-78
2022/05/21 00:07:59;;;;;;;4.22;2.35;;;19.10;99.90;;;;;;4958410;28;20027;-78
2022/05/21 00:10:27;;;;;;;3.45;2.47;;;19.00;99.90;;;;;;4974887;28;20030;-78
2022/05/21 00:12:54;;;;;;;3.10;2.47;;;19.00;99.90;;;;;;4974291;28;20034;-77
2022/05/21 00:15:22;;;;;;;5.68;2.03;;;19.00;99.90;;;;;;4974320;28;20027;-77
2022/05/21 00:17:48;;;;;;;5.03;2.45;;;18.90;99.90;;;;;;4975335;28;20039;-77
2022/05/21 00:22:58;;;;;;;5.22;2.42;;;18.90;99.90;;;;;;4975768;28;20069;-81
2022/05/21 00:25:25;;;;;;;3.88;2.15;;;18.80;99.90;;;;;;4975052;28;20090;-80
2022/05/21 00:27:51;;;;;;;3.92;2.45;;;18.80;99.90;;;;;;4975842;28;20041;-80
2022/05/21 00:30:17;;;;;;;2.72;1.98;;;18.80;99.90;;;;;;4974936;28;20464;-80
2022/05/21 00:32:43;;;;;;;4.68;2.40;;;18.80;99.90;;;;;;4974893;28;20110;-80
2022/05/21 00:35:10;;;;;;;2.75;2.10;;;18.70;99.90;;;;;;4975903;28;20419;-81
2022/05/21 00:37:35;;;;;;;6.82;1.83;;;18.60;99.90;;;;;;4958715;28;20038;-80
2022/05/21 00:40:01;;;;;;;2.38;2.00;;;18.60;99.90;;;;;;4974037;28;20118;-80
2022/05/21 00:42:26;;;;;;;3.85;1.90;;;18.40;99.90;;;;;;4974559;28;20062;-80
2022/05/21 00:44:52;;;;;;;2.65;1.63;;;18.50;99.90;;;;;;4973966;28;20399;-80
2022/05/21 00:47:18;;;;;;;3.15;1.77;;;18.40;99.90;;;;;;4974506;28;20053;-80
2022/05/21 00:49:44;;;;;;;1.95;1.60;;;18.40;99.90;;;;;;4974173;28;20035;-79
2022/05/21 00:52:17;;;;;;;2.90;1.63;;;18.40;99.90;;;;;;4973632;28;20114;-78
2022/05/21 00:54:54;;;;;;;3.63;1.50;;;18.30;99.90;;;;;;4974249;28;20173;-78
2022/05/21 00:57:25;;;;;;;2.67;1.33;;;18.20;99.90;;;;;;4973787;28;20030;-78
2022/05/21 00:59:56;;;;;;;1.88;1.40;;;18.20;99.90;;;;;;4974065;28;20496;-78
2022/05/21 01:02:36;;;;;;;3.55;1.65;;;18.20;99.90;;;;;;4975469;28;20524;-78
2022/05/21 01:05:06;;;;;;;2.20;1.38;;;18.10;99.90;;;;;;4974680;28;20031;-78
2022/05/21 01:07:31;;;;;;;2.70;1.50;;;18.00;99.90;;;;;;4974357;28;20034;-77
2022/05/21 01:10:00;;;;;;;2.95;1.42;;;17.90;99.90;;;;;;4973454;28;20034;-77
2022/05/21 01:12:31;;;;;;;1.63;1.35;;;17.90;99.90;;;;;;4958278;28;20031;-77
2022/05/21 01:15:00;;;;;;;1.70;1.30;;;17.80;99.90;;;;;;4973023;28;20034;-77
2022/05/21 01:17:26;;;;;;;2.28;1.58;;;17.80;99.90;;;;;;4973570;28;20026;-77
2022/05/21 01:19:58;;;;;;;3.30;1.48;;;17.90;99.90;;;;;;4974656;28;20035;-76
2022/05/21 01:22:29;;;;;;;2.90;1.63;;;17.80;99.90;;;;;;4973719;28;20476;-77
2022/05/21 01:24:55;;;;;;;4.05;1.42;;;17.90;99.90;;;;;;4974431;28;20042;-77
2022/05/21 01:27:22;;;;;;;3.72;1.50;;;17.90;99.90;;;;;;4957487;28;20042;-77
2022/05/21 01:29:51;;;;;;;2.72;1.60;;;17.80;99.90;;;;;;4974043;28;20484;-79
2022/05/21 01:32:18;;;;;;;3.20;1.13;;;17.80;99.90;;;;;;4974136;28;20089;-77
2022/05/21 01:34:44;;;;;;;3.05;1.50;;;17.70;99.90;;;;;;4973556;28;20038;-78
2022/05/21 01:37:10;;;;;;;3.65;1.60;;;17.70;99.90;;;;;;4973059;28;20026;-77
2022/05/21 01:39:36;;;;;;;2.58;1.45;;;17.60;99.90;;;;;;4973225;28;20039;-78
2022/05/21 01:42:02;;;;;;;4.22;1.42;;;17.50;99.90;;;;;;4973189;28;20030;-78
2022/05/21 01:44:40;;;;;;;3.90;1.60;;;17.50;99.90;;;;;;4974729;28;20026;-77
2022/05/21 01:47:10;;;;;;;1.95;1.50;;;17.50;99.90;;;;;;4973265;28;20031;-77
2022/05/21 01:49:38;;;;;;;2.90;1.60;;;17.50;99.90;;;;;;4973591;28;20396;-77
2022/05/21 01:52:05;;;;;;;2.85;1.50;;;17.40;99.90;;;;;;4974193;28;20026;-78
2022/05/21 01:54:34;;;;;;;2.03;1.70;;;17.40;99.90;;;;;;4973691;28;20057;-77
2022/05/21 01:57:00;;;;;;;2.17;1.80;;;17.40;99.90;;;;;;4956792;28;20125;-77
2022/05/21 01:59:26;;;;;;;3.10;1.45;;;17.30;99.90;;;;;;4973370;28;20130;-77
2022/05/21 02:01:53;;;;;;;2.45;1.70;;;17.30;99.90;;;;;;4956848;28;20027;-78
2022/05/21 02:04:19;;;;;;;2.53;1.85;;;17.20;99.90;;;;;;4974536;28;20457;-77
2022/05/21 02:06:46;;;;;;;2.17;1.70;;;17.20;99.90;;;;;;4973439;28;20030;-77
2022/05/21 02:09:12;;;;;;;2.60;1.50;;;17.20;99.90;;;;;;4972800;28;20023;-78
2022/05/21 02:11:38;;;;;;;2.30;1.67;;;17.20;99.90;;;;;;4974132;28;20031;-77
2022/05/21 02:14:04;;;;;;;1.70;1.60;;;17.10;99.90;;;;;;4973512;28;20457;-78
2022/05/21 02:16:30;;;;;;;4.43;1.60;;;17.10;99.90;;;;;;4957294;28;20089;-77
2022/05/21 02:18:57;;;;;;;3.53;1.75;;;17.10;99.90;;;;;;4972699;28;20118;-77
2022/05/21 02:21:23;;;;;;;3.08;1.60;;;17.00;99.90;;;;;;4973219;28;20093;-77
2022/05/21 02:23:48;;;;;;;3.38;1.58;;;16.90;99.90;;;;;;4973289;28;20484;-77
2022/05/21 02:26:17;;;;;;;2.08;1.70;;;16.90;99.90;;;;;;4957558;28;20027;-77
2022/05/21 02:28:43;;;;;;;3.05;1.55;;;16.90;99.90;;;;;;4976844;28;20035;-77
2022/05/21 02:31:08;;;;;;;5.00;2.10;;;16.90;99.90;;;;;;4976516;28;20029;-78
2022/05/21 02:33:34;;;;;;;2.35;1.50;;;16.80;99.90;;;;;;4978213;28;20034;-78
2022/05/21 02:35:59;;;;;;;3.97;1.20;;;16.70;99.90;;;;;;4960216;28;20389;-77
2022/05/21 02:41:15;;;;;;;2.03;1.30;;;16.60;99.90;;;;;;4977272;28;20042;-77
2022/05/21 02:43:43;;;;;;;2.00;1.13;;;16.50;99.90;;;;;;4976637;28;20027;-77
2022/05/21 02:46:09;;;;;;;2.10;1.08;;;16.50;99.90;;;;;;4975721;28;20476;-77
2022/05/21 02:48:35;;;;;;;4.05;1.20;;;16.40;99.90;;;;;;4976683;28;20031;-76
2022/05/21 02:51:01;;;;;;;3.50;1.42;;;16.40;99.90;;;;;;4977358;28;20034;-77
2022/05/21 02:53:27;;;;;;;2.20;1.40;;;16.30;99.90;;;;;;4976506;28;20464;-76
2022/05/21 02:55:55;;;;;;;2.40;1.40;;;16.30;99.90;;;;;;4976035;28;20058;-77
2022/05/21 02:58:22;;;;;;;2.80;1.45;;;16.30;99.90;;;;;;4976318;28;20062;-78
2022/05/21 03:00:48;;;;;;;4.38;1.60;;;16.30;99.90;;;;;;4976484;28;20034;-77
2022/05/21 03:03:15;;;;;;;2.05;1.40;;;16.20;99.90;;;;;;4976979;28;20035;-76
2022/05/21 03:05:42;;;;;;;2.47;1.63;;;16.20;99.90;;;;;;4976748;28;20023;-79
2022/05/21 03:10:54;;;;;;;2.97;2.20;;;16.20;99.90;;;;;;4977442;28;20400;-79
2022/05/21 03:13:20;;;;;;;2.80;1.92;;;16.10;99.90;;;;;;4975948;28;20027;-76
2022/05/21 03:15:46;;;;;;;4.43;2.00;;;16.10;99.90;;;;;;4977231;28;20027;-78
2022/05/21 03:18:13;;;;;;;3.15;2.35;;;16.10;99.90;;;;;;4975725;28;20472;-77
2022/05/21 03:20:39;;;;;;;4.47;2.75;;;16.10;99.90;;;;;;4976374;28;20045;-77
2022/05/21 03:23:06;;;;;;;5.93;3.30;;;16.00;99.90;;;;;;4975713;28;20033;-79
2022/05/21 03:25:32;;;;;;;5.47;2.72;;;15.90;99.90;;;;;;4977548;28;20027;-78
2022/05/21 03:27:59;;;;;;;3.78;2.45;;;15.90;99.90;;;;;;4975304;28;20039;-78
2022/05/21 03:30:27;;;;;;;4.70;2.80;;;15.90;99.90;;;;;;4960070;28;20034;-78
2022/05/21 03:32:53;;;;;;;7.95;3.13;;;15.90;99.90;;;;;;4975913;28;20058;-77
2022/05/21 03:35:20;;;;;;;4.22;3.15;;;15.80;99.90;;;;;;4975216;28;20468;-78
2022/05/21 03:37:47;;;;;;;4.15;2.67;;;15.70;99.90;;;;;;4959170;28;20470;-77
2022/05/21 03:40:16;;;;;;;4.35;2.80;;;15.80;99.90;;;;;;4975292;28;20035;-77
2022/05/21 03:42:42;;;;;;;5.40;2.67;;;15.70;99.90;;;;;;4975402;28;20022;-78
2022/05/21 03:45:08;;;;;;;8.43;3.10;;;15.70;99.90;;;;;;4974830;28;20027;-77
2022/05/21 03:47:34;;;;;;;4.00;2.83;;;15.70;99.90;;;;;;4976356;28;20101;-78
2022/05/21 03:50:01;;;;;;;4.72;2.92;;;15.80;99.90;;;;;;4975885;28;20023;-77
2022/05/21 03:52:26;;;;;;;3.53;2.92;;;15.80;99.90;;;;;;4976535;28;20030;-77
2022/05/21 03:54:52;;;;;;;3.60;2.55;;;15.80;99.90;;;;;;4975459;28;20023;-77
2022/05/21 03:57:18;;;;;;;5.68;3.03;;;15.80;99.90;;;;;;4974782;28;20037;-78
2022/05/21 03:59:44;;;;;;;3.97;2.65;;;15.80;99.90;;;;;;4975699;28;20066;-78
2022/05/21 04:02:10;;;;;;;7.15;2.85;;;15.70;99.90;;;;;;4974779;28;20396;-78
2022/05/21 04:04:36;;;;;;;3.92;2.67;;;15.80;99.90;;;;;;4976332;28;20038;-78
2022/05/21 04:07:02;;;;;;;4.20;2.88;;;15.70;99.90;;;;;;4974802;28;20038;-78
2022/05/21 04:09:28;;;;;;;4.10;2.90;;;15.70;99.90;;;;;;4957211;28;20031;-78
2022/05/21 04:11:56;;;;;;;5.13;3.10;;;15.70;99.90;;;;;;4975249;28;20470;-78
2022/05/21 04:14:27;;;;;;;6.57;3.03;;;15.70;99.90;;;;;;4958108;28;20054;-78
2022/05/21 04:16:54;;;;;;;6.82;3.10;;;15.60;99.90;;;;;;4974830;28;20070;-78
2022/05/21 04:19:20;;;;;;;4.15;3.45;;;15.60;99.90;;;;;;4974026;28;20039;-78
2022/05/21 04:21:46;;;;;;;6.53;3.38;;;15.60;99.90;;;;;;4974353;28;20059;-77
2022/05/21 04:24:11;;;;;;;5.30;3.50;;;15.60;99.90;;;;;;4973058;28;20090;-78
2022/05/21 04:26:37;;;;;;;7.78;3.63;;;15.60;99.90;;;;;;4973930;28;20460;-77
2022/05/21 04:29:03;;;;;;;6.05;3.50;;;15.60;99.90;;;;;;4974055;28;20031;-78
2022/05/21 04:31:28;;;;;;;3.88;3.33;;;15.60;99.90;;;;;;4974604;28;20042;-77
2022/05/21 04:33:54;;;;;;;5.15;3.25;;;15.70;99.90;;;;;;4975601;28;20069;-77
2022/05/21 04:36:19;;;;;;;5.53;3.60;;;15.60;99.90;;;;;;4974003;28;20023;-76
2022/05/21 04:38:52;;;;;;;6.25;3.80;;;15.70;99.90;;;;;;4957797;28;20440;-76
2022/05/21 04:41:19;;;;;;;6.93;3.50;;;15.70;99.90;;;;;;4973266;28;20109;-78
2022/05/21 04:43:45;;;;;;;5.35;3.60;;;15.70;99.90;;;;;;4973341;28;20467;-77
2022/05/21 04:46:11;;;;;;;5.68;3.60;;;15.70;99.90;;;;;;4973378;28;20457;-78
2022/05/21 04:48:38;;;;;;;5.32;3.55;;;15.60;99.90;;;;;;4973831;28;20118;-77
2022/05/21 04:51:04;;;;;;;4.85;3.35;;;15.70;99.90;;;;;;4972039;28;20030;-76
2022/05/21 04:53:31;;;;;;;5.63;3.33;;;15.60;99.90;;;;;;4974172;28;20022;-76
2022/05/21 04:55:57;;;;;;;3.88;2.75;;;15.70;99.90;;;;;;4974808;28;20113;-77
2022/05/21 04:58:22;;;;;;;5.00;3.20;;;15.70;99.90;;;;;;4973684;28;20094;-78
2022/05/21 05:00:48;;;;;;;4.15;3.00;;;15.70;99.90;;;;;;4973684;28;20444;-78
2022/05/21 05:03:16;;;;;;;4.78;2.63;;;15.60;99.90;;;;;;4974624;28;20113;-78
2022/05/21 05:05:44;;;;;;;3.55;2.50;;;15.70;99.90;;;;;;4974074;28;20408;-78
2022/05/21 05:08:10;;;;;;;4.55;2.90;;;15.70;99.90;;;;;;4973516;28;20380;-78
2022/05/21 05:10:36;;;;;;;8.80;2.80;;;15.70;99.90;;;;;;4973808;28;20539;-78
2022/05/21 05:13:03;;;;;;;3.83;2.70;;;15.70;99.90;;;;;;4974767;28;20106;-78
2022/05/21 05:15:29;;;;;;;4.65;2.13;;;15.70;99.90;;;;;;4974198;28;20392;-78
2022/05/21 05:18:09;;;;;;;4.32;2.53;;;15.70;99.90;;;;;;4973773;28;20438;-78
2022/05/21 05:20:36;;;;;;;6.78;2.85;;;15.70;99.90;;;;;;4973998;28;20058;-78
2022/05/21 05:23:01;;;;;;;3.45;2.75;;;15.70;99.90;;;;;;4973156;28;20035;-78
2022/05/21 05:25:27;;;;;;;4.45;2.42;;;15.70;99.90;;;;;;4973416;28;20022;-78
2022/05/21 05:27:53;;;;;;;6.32;3.00;;;15.70;99.90;;;;;;4973388;28;20395;-78
2022/05/21 05:30:21;;;;;;;3.45;2.30;;;15.70;99.90;;;;;;4972855;28;20039;-78
2022/05/21 05:32:46;;;;;;;4.10;2.15;;;15.60;99.90;;;;;;4973649;28;20035;-78
2022/05/21 05:35:13;;;;;;;5.47;2.28;;;15.70;99.90;;;;;;4973017;28;20081;-78
2022/05/21 05:37:39;;;;;;;2.63;1.95;;;15.70;99.90;;;;;;4973333;28;20054;-78
2022/05/21 05:40:11;;;;;;;4.10;2.15;;;15.70;99.90;;;;;;4974237;28;20037;-78
2022/05/21 05:42:38;;;;;;;3.63;1.95;;;15.80;99.90;;;;;;4973672;28;20069;-78
2022/05/21 05:45:05;;;;;;;5.43;2.35;;;15.80;99.90;;;;;;4973159;28;20053;-79
2022/05/21 05:47:31;;;;;;;3.35;1.80;;;15.80;99.90;;;;;;4973621;28;20383;-78
2022/05/21 05:49:57;;;;;;;4.20;2.17;;;15.80;99.90;;;;;;4973524;28;20027;-78
2022/05/21 05:52:23;;;;;;;3.83;2.20;;;15.80;99.90;;;;;;4972897;28;20038;-78
2022/05/21 05:54:49;;;;;;;3.72;2.38;;;15.80;99.90;;;;;;4973675;28;20118;-78
2022/05/21 05:57:16;;;;;;;4.78;1.90;;;15.80;99.90;;;;;;4974122;28;20049;-78
2022/05/21 05:59:50;;;;;;;4.20;1.90;;;15.80;99.90;;;;;;4974287;28;20050;-78
2022/05/21 06:05:18;;;;;;;5.70;1.85;;;15.90;99.90;;;;;;4977980;28;20046;-78
2022/05/21 06:07:46;;;;;;;5.07;1.83;;;15.90;99.90;;;;;;4977293;28;20030;-78
2022/05/21 06:10:14;;;;;;;2.22;1.63;;;15.90;99.90;;;;;;4976667;28;20027;-78
2022/05/21 06:12:40;;;;;;;2.80;1.48;;;15.90;99.90;;;;;;4977072;28;20098;-78
2022/05/21 06:15:07;;;;;;;3.88;1.65;;;16.00;99.90;;;;;;4976592;28;20114;-78
2022/05/21 06:17:33;;;;;;;13.23;7.97;;;16.00;99.90;;;;;;4977017;28;20023;-78
2022/05/21 06:19:58;;;;;;;4.88;2.28;;;16.10;99.90;;;;;;4977066;28;20037;-78
2022/05/21 06:22:24;;;;;;;6.55;2.03;;;16.10;99.80;;;;;;4977416;28;20583;-78
2022/05/21 06:24:51;;;;;;;5.55;1.73;;;16.20;99.80;;;;;;4977795;28;20137;-78
2022/05/21 06:27:16;;;;;;;4.95;1.95;;;16.20;99.50;;;;;;4976254;28;20030;-78
2022/05/21 06:29:42;;;;;;;3.45;1.33;;;16.30;99.40;;;;;;4978163;28;20041;-78
2022/05/21 06:32:08;;;;;;;2.10;1.15;;;16.20;99.20;;;;;;4975907;28;20073;-78
2022/05/21 06:34:37;;;;;;;3.75;1.33;;;16.20;98.60;;;;;;4976805;28;20031;-78
2022/05/21 06:37:09;;;;;;;2.78;1.20;;;16.20;98.90;;;;;;4977016;28;20027;-77
2022/05/21 06:39:36;;;;;;;2.65;1.15;;;16.30;99.00;;;;;;4977021;28;20042;-78
2022/05/21 06:42:03;;;;;;;5.65;1.10;;;16.30;98.40;;;;;;4977941;28;20105;-78
2022/05/21 06:44:29;;;;;;;2.28;1.40;;;16.30;98.10;;;;;;4977262;28;20043;-78
2022/05/21 06:46:56;;;;;;;4.53;1.38;;;16.30;98.10;;;;;;4976593;28;20031;-78
2022/05/21 06:49:22;;;;;;;3.13;1.17;;;16.40;98.20;;;;;;4975853;28;20027;-78
2022/05/21 06:51:52;;;;;;;2.88;1.20;;;16.40;98.30;;;;;;4976669;28;20034;-78
2022/05/21 06:54:18;;;;;;;5.10;1.13;;;16.30;98.00;;;;;;4976075;28;20121;-78
2022/05/21 06:56:43;;;;;;;2.40;1.40;;;16.30;98.20;;;;;;4976819;28;20124;-78
2022/05/21 06:59:09;;;;;;;4.47;1.50;;;16.30;98.40;;;;;;4976057;28;20178;-78
2022/05/21 07:01:34;;;;;;;4.60;1.98;;;16.30;98.30;;;;;;4977762;28;20027;-77
2022/05/21 07:04:00;;;;;;;2.05;1.20;;;16.30;98.50;;;;;;4977626;28;20034;-78
2022/05/21 07:09:10;;;;;;;9.60;1.35;;;16.30;98.00;;;;;;4972548;28;20049;-78
2022/05/21 07:11:37;;;;;;;4.03;1.80;;;16.30;98.00;;;;;;4973931;28;20407;-78
2022/05/21 07:14:03;;;;;;;4.35;1.13;;;16.30;97.80;;;;;;4971575;28;20023;-78
2022/05/21 07:16:29;;;;;;;4.55;1.45;;;16.30;98.10;;;;;;4994085;28;20026;-78
2022/05/21 07:18:55;;;;;;;5.93;1.38;;;16.30;98.30;;;;;;4996418;28;20491;-78
2022/05/21 07:21:21;;;;;;;9.68;1.67;;;16.40;98.40;;;;;;4961854;28;20027;-78
2022/05/21 07:23:48;;;;;;;4.22;1.15;;;16.60;98.30;;;;;;4958663;28;20051;-78
2022/05/21 07:26:15;;;;;;;2.33;1.02;;;16.80;98.20;;;;;;4975091;28;20042;-77
2022/05/21 07:28:41;;;;;;;5.70;1.52;;;16.90;98.00;;;;;;4975658;28;20101;-78
2022/05/21 07:31:07;;;;;;;2.45;1.20;;;16.90;97.60;;;;;;4975637;28;20456;-78
2022/05/21 07:33:33;;;;;;;3.30;1.30;;;17.00;97.90;;;;;;4975433;28;20392;-79
2022/05/21 07:35:58;;;;;;;2.45;1.05;;;17.00;97.80;;;;;;4976308;28;20035;-79
2022/05/21 07:38:24;;;;;;;2.38;1.00;;;17.10;97.60;;;;;;4974698;28;20062;-78
2022/05/21 07:40:52;;;;;;;3.33;1.00;;;17.10;97.60;;;;;;4975070;28;20503;-79
2022/05/21 07:43:17;;;;;;;3.30;1.10;;;17.20;97.90;;;;;;4974772;28;20023;-78
2022/05/21 07:45:44;;;;;;;1.58;0.95;;;17.30;97.30;;;;;;4959018;28;20030;-79
2022/05/21 07:48:12;;;;;;;3.58;1.08;;;17.40;97.40;;;;;;4974407;28;20089;-77
2022/05/21 07:50:44;;;;;;;1.85;1.10;;;17.40;97.20;;;;;;4976230;28;20022;-79
2022/05/21 07:53:15;;;;;;;2.88;1.00;;;17.40;97.00;;;;;;4973773;28;20027;-78
2022/05/21 07:55:48;;;;;;;2.97;1.10;;;17.40;97.00;;;;;;4958368;28;20167;-78
2022/05/21 07:58:13;;;;;;;3.47;1.60;;;17.50;96.80;;;;;;4960139;28;20047;-78
2022/05/21 08:00:39;;;;;;;3.03;1.40;;;17.50;96.80;;;;;;4967358;28;20026;-78
2022/05/21 08:03:05;;;;;;;2.63;0.90;;;17.50;96.60;;;;;;4983785;28;20492;-79
2022/05/21 08:05:31;;;;;;;1.67;1.20;;;17.50;96.40;;;;;;4968030;28;20491;-79
2022/05/21 08:07:56;;;;;;;2.65;0.98;;;17.60;96.70;;;;;;4974681;28;20034;-78
2022/05/21 08:10:22;;;;;;;2.65;0.80;;;17.60;96.70;;;;;;4974220;28;20464;-79
2022/05/21 08:12:51;;;;;;;2.42;0.82;;;17.50;96.20;;;;;;4975708;28;20345;-79
2022/05/21 08:15:19;;;;;;;3.83;1.20;;;17.50;96.10;;;;;;4973910;28;20473;-78
2022/05/21 08:17:44;;;;;;;3.22;1.23;;;17.60;96.10;;;;;;4974391;28;20030;-78
2022/05/21 08:20:12;;;;;;;3.78;1.77;;;17.70;95.80;;;;;;4974324;28;20034;-78
2022/05/21 08:28:08;;;;;;;3.53;0.70;;;17.80;95.10;;;;;;4976409;28;20085;-78
2022/05/21 08:30:34;;;;;;;4.28;1.23;;;17.90;95.20;;;;;;4974380;28;20039;-78
2022/05/21 08:33:01;;;;;;;4.93;1.83;;;18.00;95.10;;;;;;4974696;28;20030;-79
2022/05/21 08:35:28;;;;;;;2.67;1.05;;;18.20;94.60;;;;;;4974878;28;20030;-78
2022/05/21 08:37:54;;;;;;;4.70;1.40;;;18.20;94.90;;;;;;4974411;28;20467;-78
2022/05/21 08:40:20;;;;;;;4.00;1.60;;;18.30;94.20;;;;;;4974128;28;20026;-78
2022/05/21 08:42:56;;;;;;;8.23;2.42;;;18.30;94.00;;;;;;4958115;28;20023;-77
2022/05/21 08:45:32;;;;;;;4.78;2.00;;;18.40;93.50;;;;;;4973797;28;20038;-78
2022/05/21 08:48:03;;;;;;;6.68;1.90;;;18.40;94.30;;;;;;4975337;28;20054;-78
2022/05/21 08:50:33;;;;;;;4.70;1.30;;;18.50;93.90;;;;;;4957906;28;20030;-78
2022/05/21 08:53:11;;;;;;;2.15;1.00;;;18.50;93.60;;;;;;4982943;28;20480;-79
2022/05/21 08:55:46;;;;;;;5.75;1.50;;;18.60;93.80;;;;;;4993950;28;20030;-78
2022/05/21 08:58:35;;;;;;;1.50;0.80;;;18.60;92.40;;;;;;4982961;28;20039;-78
2022/05/21 09:01:01;;;;;;;1.65;0.52;;;18.60;92.60;;;;;;4965867;28;20114;-77
2022/05/21 09:03:28;;;;;;;1.67;0.60;;;18.60;92.30;;;;;;4960611;28;20054;-78
2022/05/21 09:06:28;;;;;;;3.67;0.60;;;18.50;92.40;;;;;;4973455;28;20026;-78
2022/05/21 09:09:10;;;;;;;1.02;0.40;;;18.40;92.60;;;;;;4973371;28;20160;-78
2022/05/21 09:11:56;;;;;;;1.98;0.47;;;18.50;92.20;;;;;;4973365;28;20543;-78
2022/05/21 09:14:36;;;;;;;1.77;0.50;;;18.50;92.30;;;;;;4956972;28;20136;-78
2022/05/21 09:17:08;;;;;;;1.35;0.50;;;18.50;92.50;;;;;;4954195;29;20169;-77
2022/05/21 09:19:38;;;;;;;2.22;0.40;;;18.60;92.90;;;;;;4945057;28;20031;-78
2022/05/21 09:22:13;;;;;;;3.00;0.50;;;18.60;92.30;;;;;;4973256;28;20030;-78
2022/05/21 09:24:47;;;;;;;3.72;0.40;;;18.80;91.70;;;;;;4973062;28;20051;-77
2022/05/21 09:27:34;;;;;;;3.97;0.40;;;18.90;91.10;;;;;;4972358;28;20500;-78
2022/05/21 09:30:27;;;;;;;2.58;0.68;;;19.00;91.20;;;;;;4957305;28;20133;-78
2022/05/21 09:32:59;;;;;;;5.10;0.70;;;19.10;90.50;;;;;;4973276;28;20097;-78
2022/05/21 09:35:46;;;;;;;2.53;0.65;;;19.10;90.50;;;;;;4972208;28;20054;-78
2022/05/21 09:38:30;;;;;;;3.30;0.90;;;19.20;90.60;;;;;;4973786;28;20188;-79
2022/05/21 09:41:11;;;;;;;2.53;0.43;;;19.30;90.20;;;;;;4973048;28;20054;-77
2022/05/21 09:46:31;;;;;;;1.25;0.60;;;19.50;90.20;;;;;;4973505;28;20275;-78
2022/05/21 09:49:24;;;;;;;3.90;0.65;;;19.60;89.20;;;;;;4972735;28;20388;-77
2022/05/21 09:52:00;;;;;;;3.42;0.75;;;19.70;88.70;;;;;;4956864;28;20060;-78
2022/05/21 09:54:27;;;;;;;2.22;0.40;;;19.60;88.00;;;;;;4953062;29;20034;-78
2022/05/21 09:56:55;;;;;;;1.77;0.73;;;19.60;86.60;;;;;;4956153;28;20085;-78
2022/05/21 09:59:25;;;;;;;3.50;0.45;;;19.50;86.90;;;;;;4972201;28;20042;-78
2022/05/21 10:01:58;;;;;;;1.48;0.50;;;19.40;86.90;;;;;;4972997;28;20030;-78
2022/05/21 10:04:53;;;;;;;2.38;0.60;;;19.30;87.00;;;;;;4972459;28;20031;-79
2022/05/21 10:13:11;;;;;;;1.38;0.60;;;19.40;87.60;;;;;;4954551;29;20090;-78
2022/05/21 10:15:43;;;;;;;1.77;0.50;;;19.50;86.70;;;;;;4953142;28;20027;-78
2022/05/21 10:18:15;;;;;;;2.92;0.77;;;19.50;86.00;;;;;;4953376;29;20031;-78
2022/05/21 10:20:46;;;;;;;1.58;0.45;;;19.60;86.20;;;;;;4954527;28;20039;-78
2022/05/21 10:23:44;;;;;;;3.03;0.90;;;19.70;86.30;;;;;;4972103;28;20031;-78
2022/05/21 10:26:29;;;;;;;2.25;0.35;;;19.80;85.20;;;;;;4933114;29;20111;-78
2022/05/21 10:29:20;;;;;;;4.07;0.68;;;19.80;85.60;;;;;;4933234;29;20046;-78
2022/05/21 10:33:01;;;;;;;1.67;0.50;;;19.60;83.00;;;;;;4917488;29;20039;-79
2022/05/21 10:35:50;;;;;;;3.28;0.65;;;19.60;83.10;;;;;;4824656;29;20034;-79
2022/05/21 10:38:34;;;;;;;2.83;0.65;;;19.60;83.60;;;;;;4857054;29;20042;-79
2022/05/21 10:41:14;;;;;;;0.95;0.43;;;19.70;83.30;;;;;;4857717;29;20063;-80
2022/05/21 10:43:58;;;;;;;1.17;0.50;;;19.90;84.00;;;;;;4867712;29;20041;-79
2022/05/21 10:46:35;;;;;;;2.92;0.60;;;19.80;83.90;;;;;;4867375;29;20033;-80
2022/05/21 10:49:09;;;;;;;1.98;0.40;;;19.80;83.90;;;;;;4864640;29;20124;-79
2022/05/21 10:51:47;;;;;;;2.25;0.60;;;19.70;82.30;;;;;;4860545;29;20044;-79
2022/05/21 10:54:36;;;;;;;1.35;0.50;;;19.70;81.40;;;;;;4842565;29;20045;-80
2022/05/21 10:57:20;;;;;;;1.52;0.40;;;19.80;80.60;;;;;;4857426;29;20069;-80
2022/05/21 10:59:54;;;;;;;2.25;0.50;;;19.80;79.10;;;;;;4847796;29;20104;-80
2022/05/21 11:02:39;;;;;;;6.20;2.33;;;19.90;80.50;;;;;;4860771;29;20087;-79
2022/05/21 11:05:36;;;;;;;3.35;1.17;;;19.90;80.40;;;;;;4849795;28;20037;-79
2022/05/21 11:08:11;;;;;;;1.60;0.63;;;19.80;81.00;;;;;;4947862;28;20031;-79
2022/05/21 11:11:21;;;;;;;2.85;1.00;;;19.90;81.80;;;;;;4976599;28;20050;-80
2022/05/21 11:14:01;;;;;;;1.73;0.50;;;19.90;79.80;;;;;;4914772;29;20028;-80
2022/05/21 11:16:35;;;;;;;1.92;0.50;;;20.10;79.60;;;;;;4971639;28;20046;-79
2022/05/21 11:19:12;;;;;;;5.00;0.60;;;20.20;77.70;;;;;;4959395;28;20045;-80
2022/05/21 11:21:58;;;;;;;2.47;0.75;;;20.20;77.60;;;;;;4955650;29;20134;-80
2022/05/21 11:24:36;;;;;;;1.27;0.60;;;20.30;78.70;;;;;;4939230;29;20043;-80
2022/05/21 11:27:05;;;;;;;1.85;0.50;;;20.30;78.10;;;;;;4955384;28;20062;-79
2022/05/21 11:29:49;;;;;;;2.63;0.50;;;20.30;78.10;;;;;;4955260;29;20106;-80
2022/05/21 11:38:09;;;;;;;2.75;0.40;;;20.60;77.40;;;;;;4976024;28;20049;-79
2022/05/21 11:41:24;;;;;;;1.88;0.60;;;20.50;76.00;;;;;;4974604;28;20788;-80
2022/05/21 11:47:13;;;;;;;3.42;0.50;;;20.90;74.70;;;;;;4976218;28;20399;-80
2022/05/21 11:49:48;;;;;;;0.75;0.40;;;20.90;75.00;;;;;;4960785;28;20026;-80
2022/05/21 11:52:26;;;;;;;1.13;0.43;;;20.90;74.90;;;;;;4974693;28;20391;-79
2022/05/21 11:54:55;;;;;;;0.65;0.40;;;21.00;74.30;;;;;;4958735;28;20035;-80
2022/05/21 11:57:55;;;;;;;2.38;0.50;;;21.20;74.50;;;;;;4957715;28;20042;-79
2022/05/21 12:00:20;;;;;;;0.68;0.40;;;21.50;75.60;;;;;;4958100;28;20074;-79
2022/05/21 12:02:58;;;;;;;1.98;0.55;;;21.60;73.70;;;;;;4975890;28;20051;-80
2022/05/21 12:05:37;;;;;;;1.38;0.65;;;21.60;72.50;;;;;;4957615;28;20042;-79
2022/05/21 12:08:21;;;;;;;1.63;0.40;;;21.60;71.60;;;;;;4975550;28;20376;-80
2022/05/21 12:11:12;;;;;;;2.00;0.60;;;21.50;71.60;;;;;;4958104;28;20026;-80
2022/05/21 12:13:40;;;;;;;1.85;0.30;;;21.80;70.70;;;;;;4953659;28;20023;-79
2022/05/21 12:16:15;;;;;;;3.10;0.50;;;22.00;70.90;;;;;;4975566;28;20058;-80
2022/05/21 12:18:46;;;;;;;1.63;0.38;;;22.10;70.70;;;;;;4958101;28;20041;-80
2022/05/21 12:21:30;;;;;;;4.93;0.60;;;22.20;70.50;;;;;;4974112;28;20026;-80
2022/05/21 12:23:56;;;;;;;2.55;0.40;;;22.30;68.10;;;;;;4957830;28;20051;-79
2022/05/21 12:26:26;;;;;;;5.30;0.65;;;22.30;69.50;;;;;;4971628;28;20105;-80
2022/05/21 12:29:00;;;;;;;1.95;0.47;;;22.40;68.50;;;;;;4952965;28;20031;-80
2022/05/21 12:31:28;;;;;;;1.38;0.32;;;22.40;67.20;;;;;;4967251;28;20555;-79
2022/05/21 12:34:12;;;;;;;1.10;0.35;;;22.30;67.70;;;;;;4969136;28;20064;-79
2022/05/21 12:36:53;;;;;;;0.93;0.40;;;22.40;66.40;;;;;;4957408;28;20496;-80
2022/05/21 12:39:26;;;;;;;1.38;0.30;;;22.30;67.00;;;;;;4941422;28;20169;-79
2022/05/21 12:41:56;;;;;;;1.65;0.50;;;22.40;66.20;;;;;;4974052;28;20051;-80
2022/05/21 12:44:40;;;;;;;2.35;0.57;;;22.40;66.90;;;;;;4979855;28;20064;-79
2022/05/21 12:47:10;;;;;;;0.40;0.32;;;22.40;64.60;;;;;;4991509;28;20560;-79
2022/05/21 12:49:45;;;;;;;4.15;0.32;;;22.60;66.00;;;;;;4974313;28;20026;-79
2022/05/21 12:52:10;;;;;;;1.27;0.50;;;23.00;66.00;;;;;;4957920;28;20033;-79
2022/05/21 12:54:36;;;;;;;0.80;0.50;;;23.10;64.80;;;;;;4973135;28;20022;-80
2022/05/21 12:57:12;;;;;;;1.75;0.43;;;23.20;65.20;;;;;;4974570;28;20035;-79
2022/05/21 12:59:39;;;;;;;1.33;0.30;;;23.40;64.20;;;;;;4972904;28;20507;-79
2022/05/21 13:02:20;;;;;;;1.98;0.40;;;23.40;62.60;;;;;;4957592;28;20066;-79
2022/05/21 13:04:49;;;;;;;3.72;0.43;;;23.40;62.10;;;;;;4954511;29;20404;-79
2022/05/21 13:07:27;;;;;;;2.83;0.82;;;23.10;62.20;;;;;;4956705;28;20431;-79
2022/05/21 13:09:52;;;;;;;1.52;0.40;;;23.30;62.70;;;;;;4966271;28;20027;-79
2022/05/21 13:12:19;;;;;;;1.25;0.30;;;23.30;62.30;;;;;;4956464;28;20027;-78
2022/05/21 13:14:47;;;;;;;2.80;0.40;;;23.10;62.30;;;;;;4977602;28;20030;-79
2022/05/21 13:17:32;;;;;;;1.50;0.40;;;22.90;62.60;;;;;;4973524;28;20117;-79
2022/05/21 13:20:00;;;;;;;0.93;0.30;;;23.10;62.90;;;;;;4965907;28;20031;-79
2022/05/21 13:22:33;;;;;;;1.35;0.50;;;23.00;62.90;;;;;;4961165;28;20027;-79
2022/05/21 13:25:04;;;;;;;2.40;0.50;;;23.20;62.50;;;;;;4971939;28;20054;-79
2022/05/21 13:27:43;;;;;;;2.65;0.60;;;24.00;63.00;;;;;;4972550;28;20027;-79
2022/05/21 13:30:14;;;;;;;2.85;0.47;;;24.70;58.90;;;;;;4973531;28;20468;-79
2022/05/21 13:32:40;;;;;;;1.88;0.60;;;25.30;57.60;;;;;;4972708;28;20146;-79
2022/05/21 13:35:35;;;;;;;1.13;0.40;;;25.50;56.50;;;;;;4974283;28;20136;-79
2022/05/21 13:38:06;;;;;;;1.55;0.50;;;25.90;55.50;;;;;;4973866;28;20177;-80
2022/05/21 13:40:55;;;;;;;1.52;0.30;;;26.20;55.30;;;;;;4972830;28;20031;-79
2022/05/21 13:43:31;;;;;;;2.83;0.70;;;26.20;55.30;;;;;;4972960;28;20027;-80